Terminal Aerodrome Forecast
Issued by NWS

Home | Current Version | Previous Version | Text Only | Print | Product List | Glossary On
Versions: 1 2 3 4 5 6 7 8 9 10 11 12 13 14 15 16 17 18 19 20
000
FTUS44 KHGX 270521
TAFLBX
TAF
KLBX 270521Z 2706/2806 16011KT P6SM BKN013 OVC020
      TEMPO 2707/2710 OVC009
     FM271400 18015G22KT P6SM SCT015 BKN025
     FM271700 18016G23KT P6SM BKN035
     FM280300 17012KT P6SM BKN015 OVC030=

USA.gov is the U.S. government's official web portal to all federal, state and local government web resources and services.